Aeroporto :
LOGIN :

Iscrizione | Disclaimer

   EN    FR    IT 

 










Sommario :    VFR   VFR Marginale   IFR   IFR Intensivo   IFR Molto Intensivo
Visibilità : 
Base nubi : 
>= 8 km
>= 3000ft
5 / 8 km
1000 / 3000 ft
1500m / 5 km
500 / 1000 ft
800 / 1500m
200 / 500 ft
< 800m
< 200 ft
Simboli :   Temporali  Nebbia  Neve Forte  Precipitazioni Forti  Vento > 20 kt
SIGMETs :   Varie  Temporali  Ghiacco  Turbolenza  Onda orograficha  Ceneri Vulcaniche







- Altitudine del aeroporto : 782 ft
- Codice IATA : BGY


LIME - Orio al Serio International - Bergamo

ULTIMO METAR :
  • 200850Z 27003KT 220V310 CAVOK 26/13 Q1013 NOSIG

METARs OBSOLETI :
  • 200820Z VRB02KT CAVOK 26/14 Q1013 NOSIG
  • 200750Z VRB01KT 9999 FEW080 26/14 Q1013 NOSIG
  • 200720Z VRB01KT 9999 SCT080 25/14 Q1013 NOSIG
  • 200650Z 02003KT 320V060 9999 SCT060 23/15 Q1013 NOSIG
  • 200620Z 36004KT 310V030 9999 SCT060 22/15 Q1013 NOSIG

TAF TAF LIME
Valido dal 20 a 06 ore il 21 a 06 ore UTC


200500Z 2006/2106 VRB05KT CAVOK
PROB40
TEMPO 2012/2018 TSRA
Nessun NOTAM noto per questo aeroporto.



MetMap, La meteo Aeronautica in un colpo d'occhio ! - Copyright ORBIFLY Dicembre 2007 - Disclaimer

ORBIFLY MET'MAP TEAM :

Programmazione e sviluppo : Alexandra Zaïnal
Concezione e sviluppo : Baudouin d'Aumeries
Co-Programmazione e sviluppo : Marc-Olivier Méhu
Supporto tecnico e logistico : Manuel Goepfert
Aiuto per la traduzione : Arnaldo La Scala

Contatto : metmap@orbifly.com




FONTI E CREDITI :

   NOAA